createdAt,value
2019-05-06T00:03:24.699Z,3.33
2019-05-06T00:08:28.750Z,3.30
2019-05-06T00:13:34.338Z,3.50
2019-05-06T00:18:39.113Z,3.40
2019-05-06T00:23:45.111Z,3.67
2019-05-06T00:28:51.327Z,3.30
2019-05-06T00:33:55.695Z,3.53
2019-05-06T00:39:01.709Z,3.60
2019-05-06T00:44:07.668Z,3.27
2019-05-06T00:49:12.015Z,3.03
2019-05-06T00:54:26.898Z,3.77
2019-05-06T00:59:31.346Z,3.67
2019-05-06T01:04:35.867Z,3.37
2019-05-06T01:09:40.371Z,3.60
2019-05-06T01:14:54.368Z,3.40
2019-05-06T01:19:58.222Z,3.50
2019-05-06T01:25:03.952Z,3.90
2019-05-06T01:30:08.741Z,3.60
2019-05-06T01:35:14.076Z,3.70
2019-05-06T01:40:26.409Z,3.90
2019-05-06T01:45:30.777Z,3.90
2019-05-06T01:50:35.135Z,4.33
2019-05-06T01:55:39.503Z,4.00
2019-05-06T02:00:44.864Z,4.00
2019-05-06T02:05:49.316Z,4.13
2019-05-06T02:10:54.669Z,3.90
2019-05-06T02:15:59.057Z,4.17
2019-05-06T02:21:24.526Z,3.97
2019-05-06T02:26:29.030Z,3.80
2019-05-06T02:31:46.049Z,4.23
2019-05-06T02:36:57.332Z,3.83
2019-05-06T02:42:03.984Z,4.30
2019-05-06T02:47:25.765Z,3.70
2019-05-06T02:52:32.809Z,4.00
2019-05-06T02:57:36.189Z,3.77
2019-05-06T03:02:44.917Z,3.87
2019-05-06T03:07:47.954Z,4.00
2019-05-06T03:12:53.829Z,3.60
2019-05-06T03:17:58.436Z,4.20
2019-05-06T03:23:04.438Z,3.90
2019-05-06T03:28:09.972Z,4.00
2019-05-06T03:33:37.009Z,3.87
2019-05-06T03:38:22.893Z,3.70
2019-05-06T03:43:26.413Z,4.40
2019-05-06T03:48:35.121Z,4.08
2019-05-06T03:53:39.459Z,4.30
2019-05-06T03:58:44.675Z,3.80
2019-05-06T04:03:53.794Z,3.90
2019-05-06T04:08:55.139Z,4.23
2019-05-06T04:14:02.538Z,3.43
2019-05-06T04:19:12.933Z,3.70
2019-05-06T04:24:18.244Z,3.93
2019-05-06T04:29:24.030Z,4.20
2019-05-06T04:34:28.855Z,3.97
2019-05-06T04:39:33.360Z,3.97
2019-05-06T04:44:37.861Z,3.80
2019-05-06T04:49:43.721Z,4.20
2019-05-06T04:54:48.232Z,4.60
2019-05-06T04:59:54.163Z,4.13
2019-05-06T05:04:58.782Z,4.47
2019-05-06T05:10:04.761Z,4.20
2019-05-06T05:15:22.947Z,4.37
2019-05-06T05:20:37.105Z,4.40
2019-05-06T05:25:33.433Z,5.03
2019-05-06T05:30:37.821Z,4.40
2019-05-06T05:35:43.247Z,5.53
2019-05-06T05:40:47.762Z,5.90
2019-05-06T05:45:52.421Z,5.47
2019-05-06T05:50:57.019Z,5.80
2019-05-06T05:56:02.548Z,6.13
2019-05-06T06:01:08.289Z,6.43
2019-05-06T06:06:12.870Z,6.07
2019-05-06T06:11:23.082Z,6.40
2019-05-06T06:16:29.110Z,5.57
2019-05-06T06:21:35.165Z,5.70
2019-05-06T06:26:39.683Z,5.50
2019-05-06T06:31:48.487Z,5.73
2019-05-06T06:37:13.194Z,5.40
2019-05-06T06:42:17.069Z,4.93
2019-05-06T06:47:22.491Z,4.80
2019-05-06T06:52:27.030Z,5.20
2019-05-06T06:57:34.507Z,5.08
2019-05-06T07:02:49.678Z,5.50
2019-05-06T07:07:54.114Z,4.97
2019-05-06T07:12:58.556Z,5.47
2019-05-06T07:18:02.974Z,4.83
2019-05-06T07:23:26.532Z,4.83
2019-05-06T07:28:32.636Z,4.43
2019-05-06T07:33:36.925Z,3.93
2019-05-06T07:38:43.906Z,4.10
2019-05-06T07:43:55.915Z,3.80
2019-05-06T07:49:02.999Z,4.10
2019-05-06T07:54:06.419Z,3.40
2019-05-06T07:59:12.722Z,3.73
2019-05-06T08:04:23.710Z,3.20
2019-05-06T08:09:28.126Z,3.10
2019-05-06T08:14:43.083Z,3.20
2019-05-06T08:19:48.721Z,3.00
2019-05-06T08:24:54.230Z,3.17
2019-05-06T08:29:58.706Z,3.43
2019-05-06T08:35:03.781Z,3.10
2019-05-06T08:40:08.984Z,2.70
2019-05-06T08:45:14.248Z,2.80
2019-05-06T08:50:21.800Z,2.90
2019-05-06T08:55:41.958Z,2.47
2019-05-06T09:00:50.213Z,2.43
2019-05-06T09:05:54.728Z,2.62
2019-05-06T09:10:59.286Z,3.03
2019-05-06T09:16:03.913Z,2.43
2019-05-06T09:21:08.382Z,2.70
2019-05-06T09:26:14.381Z,2.90
2019-05-06T09:31:20.399Z,2.77
2019-05-06T09:36:39.533Z,2.70
2019-05-06T09:41:32.452Z,3.33
2019-05-06T09:46:37.967Z,2.70
2019-05-06T09:51:42.609Z,2.70
2019-05-06T09:56:54.297Z,3.00
2019-05-06T10:01:58.760Z,3.00
2019-05-06T10:07:03.210Z,3.03
2019-05-06T10:12:07.768Z,2.87
2019-05-06T10:17:13.236Z,3.30
2019-05-06T10:22:18.003Z,2.70
2019-05-06T10:27:22.759Z,3.37
2019-05-06T10:32:35.905Z,3.07
2019-05-06T10:38:03.045Z,2.57
2019-05-06T10:43:27.901Z,2.57
2019-05-06T10:48:32.312Z,2.30
2019-05-06T10:53:36.691Z,2.47
2019-05-06T10:58:43.772Z,2.40
2019-05-06T11:03:48.306Z,2.30
2019-05-06T11:08:52.729Z,2.10
2019-05-06T11:13:57.141Z,2.20
2019-05-06T11:19:02.188Z,2.20
2019-05-06T11:24:07.604Z,3.00
2019-05-06T11:29:13.585Z,2.70
2019-05-06T11:34:22.561Z,2.33
2019-05-06T11:39:26.910Z,2.70
2019-05-06T11:44:32.349Z,2.27
2019-05-06T11:49:36.831Z,2.43
2019-05-06T11:54:42.273Z,2.50
2019-05-06T11:59:46.823Z,2.53
2019-05-06T12:04:52.797Z,2.50
2019-05-06T12:09:57.425Z,2.60
2019-05-06T12:15:03.589Z,2.60
2019-05-06T12:20:08.221Z,3.10
2019-05-06T12:25:15.419Z,2.80
2019-05-06T12:30:23.256Z,2.80
2019-05-06T12:35:28.717Z,3.20
2019-05-06T12:40:33.194Z,2.70
2019-05-06T12:45:39.222Z,2.67
2019-05-06T12:50:43.607Z,2.60
2019-05-06T12:55:48.042Z,3.70
2019-05-06T13:00:54.275Z,2.57
2019-05-06T13:05:58.513Z,2.70
2019-05-06T13:11:02.938Z,2.80
2019-05-06T13:16:07.487Z,2.80
2019-05-06T13:21:12.691Z,3.17
2019-05-06T13:26:17.274Z,2.77
2019-05-06T13:31:25.535Z,2.63
2019-05-06T13:36:27.802Z,2.50
2019-05-06T13:41:32.773Z,2.73
2019-05-06T13:46:38.860Z,2.20
2019-05-06T13:51:44.879Z,2.00
2019-05-06T13:56:49.226Z,2.40
2019-05-06T14:02:11.661Z,2.33
2019-05-06T14:07:16.021Z,2.37
2019-05-06T14:12:22.049Z,2.43
2019-05-06T14:17:26.883Z,2.67
2019-05-06T14:22:32.626Z,2.60
2019-05-06T14:27:37.254Z,2.80
2019-05-06T14:32:43.172Z,2.50
2019-05-06T14:37:47.785Z,2.77
2019-05-06T14:42:53.126Z,2.60
2019-05-06T14:47:57.809Z,2.70
2019-05-06T14:53:02.685Z,2.77
2019-05-06T14:58:07.390Z,2.83
2019-05-06T15:03:12.922Z,2.43
2019-05-06T15:08:18.537Z,2.83
2019-05-06T15:13:22.966Z,3.10
2019-05-06T15:18:27.407Z,2.80
2019-05-06T15:23:31.853Z,2.50
2019-05-06T15:28:36.231Z,2.63
2019-05-06T15:33:42.307Z,2.60
2019-05-06T15:38:47.014Z,2.47
2019-05-06T15:43:51.416Z,2.50
2019-05-06T15:48:55.779Z,2.57
2019-05-06T15:54:02.530Z,2.63
2019-05-06T15:59:06.201Z,2.40
2019-05-06T16:04:12.214Z,2.43
2019-05-06T16:09:16.752Z,2.53
2019-05-06T16:14:22.994Z,2.40
2019-05-06T16:19:27.168Z,2.10
2019-05-06T16:24:35.194Z,1.83
2019-05-06T16:29:39.272Z,2.37
2019-05-06T16:34:43.605Z,2.20
2019-05-06T16:39:47.985Z,3.73
2019-05-06T16:44:52.849Z,2.27
2019-05-06T16:49:57.271Z,1.93
2019-05-06T16:55:03.177Z,2.22
2019-05-06T17:00:09.390Z,2.13
2019-05-06T17:05:22.420Z,2.20
2019-05-06T17:10:26.870Z,1.80
2019-05-06T17:15:32.206Z,2.13
2019-05-06T17:20:36.995Z,2.33
2019-05-06T17:25:42.296Z,2.37
2019-05-06T17:30:53.580Z,2.20
2019-05-06T17:35:57.239Z,2.10
2019-05-06T17:41:03.008Z,2.00
2019-05-06T17:46:08.144Z,2.10
2019-05-06T17:51:17.494Z,2.00
2019-05-06T17:56:22.374Z,2.40
2019-05-06T18:01:38.535Z,2.13
2019-05-06T18:06:43.002Z,2.23
2019-05-06T18:11:58.551Z,2.10
2019-05-06T18:16:53.970Z,2.20
2019-05-06T18:21:58.399Z,2.20
2019-05-06T18:27:02.868Z,2.20
2019-05-06T18:32:07.356Z,1.80
2019-05-06T18:37:12.869Z,2.00
2019-05-06T18:42:20.494Z,2.07
2019-05-06T18:47:23.795Z,2.20
2019-05-06T18:52:28.278Z,2.20
2019-05-06T18:57:33.118Z,2.27
2019-05-06T19:02:38.462Z,2.27
2019-05-06T19:07:43.444Z,2.50
2019-05-06T19:12:48.911Z,2.27
2019-05-06T19:17:53.287Z,2.60
2019-05-06T19:22:57.835Z,2.60
2019-05-06T19:28:02.404Z,2.40
2019-05-06T19:33:07.807Z,3.10
2019-05-06T19:38:13.424Z,3.40
2019-05-06T19:43:17.821Z,2.73
2019-05-06T19:48:24.656Z,2.30
2019-05-06T19:53:28.248Z,2.50
2019-05-06T19:58:34.050Z,3.17
2019-05-06T20:03:38.639Z,3.00
2019-05-06T20:08:53.721Z,2.80
2019-05-06T20:13:58.873Z,2.83
2019-05-06T20:19:03.232Z,3.47
2019-05-06T20:24:07.622Z,3.00
2019-05-06T20:29:12.070Z,3.30
2019-05-06T20:34:16.516Z,3.30
2019-05-06T20:39:22.829Z,3.50
2019-05-06T20:44:26.988Z,3.57
2019-05-06T20:49:33.313Z,3.80
2019-05-06T20:54:37.484Z,3.67
2019-05-06T20:59:42.152Z,3.87
2019-05-06T21:04:46.621Z,3.80
2019-05-06T21:09:52.525Z,3.37
2019-05-06T21:14:57.023Z,3.50
2019-05-06T21:20:02.876Z,3.97
2019-05-06T21:25:08.719Z,3.50
2019-05-06T21:30:13.402Z,3.30
2019-05-06T21:35:17.751Z,3.83
2019-05-06T21:40:22.163Z,3.40
2019-05-06T21:45:26.588Z,3.07
2019-05-06T21:50:32.976Z,3.50
2019-05-06T21:55:36.994Z,3.40
2019-05-06T22:00:54.987Z,7.27
2019-05-06T22:05:59.396Z,3.97
2019-05-06T22:11:03.858Z,3.60
2019-05-06T22:16:08.225Z,3.70
2019-05-06T22:21:17.484Z,4.27
2019-05-06T22:26:23.301Z,3.50
2019-05-06T22:31:28.329Z,4.03
2019-05-06T22:36:32.724Z,3.87
2019-05-06T22:41:37.078Z,3.73
2019-05-06T22:46:42.632Z,4.07
2019-05-06T22:51:47.085Z,3.80
2019-05-06T22:56:52.414Z,3.90
2019-05-06T23:02:02.426Z,3.80
2019-05-06T23:07:06.987Z,4.30
2019-05-06T23:12:12.307Z,4.37
2019-05-06T23:17:16.773Z,4.53
2019-05-06T23:22:22.739Z,4.87
2019-05-06T23:27:27.206Z,4.62
2019-05-06T23:32:32.615Z,4.70
2019-05-06T23:38:13.382Z,4.77
2019-05-06T23:43:54.556Z,4.80
2019-05-06T23:49:35.646Z,4.43
2019-05-06T23:55:16.928Z,4.20
